Orbital elements of SL-12 R/B(2)
| Launched | 27 October 1993 |
| Flight ended | – |
| Launch site | Tyuratam Missile and Space Center, Kazakhstan (Also known as Baikonur Cosmodrome) |
| Owner | Commonwealth of Independent States (former USSR) |
| NORAD ID | 22883 |
| Date fetched |
Epoch osculation |
Inc. [°] |
Ecc. | RA asc node [hr] |
Arg Peri. [°] |
Mean anom [°] |
Mean motion [rev/day] |
Abs. mag |
| Date fetched |
Epoch osculation |
Inc. [°] |
Ecc. | RA asc node [hr] |
Arg Peri. [°] |
Mean anom [°] |
Mean motion [rev/day] |
Abs. mag |
| 2026 May 05 17:57 | 2026 May 05 05:42:03 | 13.8816 | 0.00043 | 23.1344 | 42.3189 | 145.6745 | 1.00494 | – |
| 2026 May 04 17:57 | 2026 Apr 30 05:53:50 | 13.8841 | 0.00043 | 23.1368 | 42.2881 | 145.6745 | 1.00494 | – |
| 2026 May 03 17:57 | 2026 Apr 30 05:53:50 | 13.8841 | 0.00043 | 23.1368 | 42.2881 | 145.6745 | 1.00494 | – |
| 2026 May 02 17:57 | 2026 Apr 30 05:53:50 | 13.8841 | 0.00043 | 23.1368 | 42.2881 | 145.6745 | 1.00494 | – |
| 2026 May 01 17:56 | 2026 Apr 30 05:53:50 | 13.8841 | 0.00043 | 23.1368 | 42.2881 | 145.6745 | 1.00494 | – |
| 2026 Apr 30 17:56 | 2026 Apr 30 05:53:50 | 13.8841 | 0.00043 | 23.1368 | 42.2881 | 145.6745 | 1.00494 | – |
| 2026 Apr 29 17:57 | 2026 Apr 24 06:07:59 | 13.8869 | 0.00043 | 23.1397 | 42.4190 | 145.6745 | 1.00494 | – |
| 2026 Apr 28 17:56 | 2026 Apr 24 06:07:59 | 13.8869 | 0.00043 | 23.1397 | 42.4190 | 145.6745 | 1.00494 | – |
| 2026 Apr 27 17:58 | 2026 Apr 24 06:07:59 | 13.8869 | 0.00043 | 23.1397 | 42.4190 | 145.6745 | 1.00494 | – |
| 2026 Apr 26 17:58 | 2026 Apr 24 06:07:59 | 13.8869 | 0.00043 | 23.1397 | 42.4190 | 145.6745 | 1.00494 | – |
| 2026 Apr 25 17:58 | 2026 Apr 24 06:07:59 | 13.8869 | 0.00043 | 23.1397 | 42.4190 | 145.6745 | 1.00494 | – |
| 2026 Apr 24 17:59 | 2026 Apr 24 06:07:59 | 13.8869 | 0.00043 | 23.1397 | 42.4190 | 145.6745 | 1.00494 | – |
| 2026 Apr 23 17:57 | 2026 Apr 19 08:02:09 | 13.8891 | 0.00044 | 23.1422 | 41.1621 | 145.6745 | 1.00494 | – |
| 2026 Apr 22 17:57 | 2026 Apr 19 08:02:09 | 13.8891 | 0.00044 | 23.1422 | 41.1621 | 145.6745 | 1.00494 | – |
| 2026 Apr 21 17:57 | 2026 Apr 19 08:02:09 | 13.8891 | 0.00044 | 23.1422 | 41.1621 | 145.6745 | 1.00494 | – |
| 2026 Apr 20 17:57 | 2026 Apr 19 08:02:09 | 13.8891 | 0.00044 | 23.1422 | 41.1621 | 145.6745 | 1.00494 | – |
| 2026 Apr 19 17:58 | 2026 Apr 19 08:02:09 | 13.8891 | 0.00044 | 23.1422 | 41.1621 | 145.6745 | 1.00494 | – |
| 2026 Apr 18 17:56 | 2026 Apr 12 08:18:38 | 13.8924 | 0.00043 | 23.1456 | 37.7731 | 145.6745 | 1.00494 | – |
| 2026 Apr 16 17:57 | 2026 Apr 12 08:18:38 | 13.8924 | 0.00043 | 23.1456 | 37.7731 | 145.6745 | 1.00494 | – |
| 2026 Apr 14 17:57 | 2026 Apr 12 08:18:38 | 13.8924 | 0.00043 | 23.1456 | 37.7731 | 145.6745 | 1.00494 | – |
| 2026 Apr 13 17:57 | 2026 Apr 12 08:18:38 | 13.8924 | 0.00043 | 23.1456 | 37.7731 | 145.6745 | 1.00494 | – |
| 2026 Apr 12 17:57 | 2026 Apr 08 12:05:48 | 13.8941 | 0.00043 | 23.1475 | 37.3769 | 145.6745 | 1.00494 | – |
| 2026 Apr 11 17:57 | 2026 Apr 08 12:05:48 | 13.8941 | 0.00043 | 23.1475 | 37.3769 | 145.6745 | 1.00494 | – |
| 2026 Apr 10 17:58 | 2026 Apr 08 12:05:48 | 13.8941 | 0.00043 | 23.1475 | 37.3769 | 145.6745 | 1.00494 | – |
| 2026 Apr 09 18:01 | 2026 Apr 08 12:05:48 | 13.8941 | 0.00043 | 23.1475 | 37.3769 | 145.6745 | 1.00494 | – |
| 2026 Apr 08 17:57 | 2026 Apr 08 12:05:48 | 13.8941 | 0.00043 | 23.1475 | 37.3769 | 145.6745 | 1.00494 | – |